sensor_id;sensor_type;location;lat;lon;timestamp;pressure;altitude;pressure_sealevel;temperature;humidity
68889;BME280;55930;47.412;8.790;2023-05-27T00:01:12;95038.44;;;14.09;100.00
68889;BME280;55930;47.412;8.790;2023-05-27T00:04:35;95041.09;;;14.09;100.00
68889;BME280;55930;47.412;8.790;2023-05-27T00:07:56;95031.16;;;14.10;100.00
68889;BME280;55930;47.412;8.790;2023-05-27T00:11:16;95036.09;;;13.97;100.00
68889;BME280;55930;47.412;8.790;2023-05-27T00:14:36;95038.72;;;13.91;100.00
68889;BME280;55930;47.412;8.790;2023-05-27T00:18:00;95035.06;;;14.14;100.00
68889;BME280;55930;47.412;8.790;2023-05-27T00:21:22;95039.25;;;14.21;100.00
68889;BME280;55930;47.412;8.790;2023-05-27T00:24:44;95036.44;;;14.04;100.00
68889;BME280;55930;47.412;8.790;2023-05-27T00:28:05;95032.88;;;14.13;100.00
68889;BME280;55930;47.412;8.790;2023-05-27T00:31:25;95029.19;;;13.85;100.00
68889;BME280;55930;47.412;8.790;2023-05-27T00:34:46;95027.06;;;13.68;100.00
68889;BME280;55930;47.412;8.790;2023-05-27T00:38:06;95029.19;;;13.85;100.00
68889;BME280;55930;47.412;8.790;2023-05-27T00:41:27;95019.72;;;14.04;100.00
68889;BME280;55930;47.412;8.790;2023-05-27T00:44:47;95022.44;;;13.89;100.00
68889;BME280;55930;47.412;8.790;2023-05-27T00:48:09;95018.06;;;13.86;100.00
68889;BME280;55930;47.412;8.790;2023-05-27T00:51:30;95015.63;;;14.08;100.00
68889;BME280;55930;47.412;8.790;2023-05-27T00:54:53;95018.78;;;13.87;100.00
68889;BME280;55930;47.412;8.790;2023-05-27T00:58:16;95017.00;;;13.78;100.00
68889;BME280;55930;47.412;8.790;2023-05-27T01:01:38;95011.84;;;13.95;99.03
68889;BME280;55930;47.412;8.790;2023-05-27T01:04:59;95014.09;;;14.02;98.55
68889;BME280;55930;47.412;8.790;2023-05-27T01:08:34;95009.78;;;13.84;99.51
68889;BME280;55930;47.412;8.790;2023-05-27T01:12:08;95013.72;;;13.89;99.13
68889;BME280;55930;47.412;8.790;2023-05-27T01:15:32;95013.00;;;13.88;98.10
68889;BME280;55930;47.412;8.790;2023-05-27T01:18:53;95005.00;;;13.88;97.92
68889;BME280;55930;47.412;8.790;2023-05-27T01:22:15;95008.03;;;13.81;98.91
68889;BME280;55930;47.412;8.790;2023-05-27T01:25:35;95005.00;;;13.68;100.00
68889;BME280;55930;47.412;8.790;2023-05-27T01:28:56;95006.28;;;13.72;98.69
68889;BME280;55930;47.412;8.790;2023-05-27T01:32:27;95008.38;;;13.68;98.10
68889;BME280;55930;47.412;8.790;2023-05-27T01:35:54;95005.19;;;13.64;99.14
68889;BME280;55930;47.412;8.790;2023-05-27T01:39:17;95002.44;;;13.59;99.10
68889;BME280;55930;47.412;8.790;2023-05-27T01:42:39;95007.78;;;13.59;98.94
68889;BME280;55930;47.412;8.790;2023-05-27T01:46:00;94998.59;;;13.60;97.96
68889;BME280;55930;47.412;8.790;2023-05-27T01:49:21;94992.19;;;13.52;98.32
68889;BME280;55930;47.412;8.790;2023-05-27T01:52:41;94997.97;;;13.50;98.31
68889;BME280;55930;47.412;8.790;2023-05-27T01:56:02;95003.81;;;13.49;98.06
68889;BME280;55930;47.412;8.790;2023-05-27T01:59:22;94995.25;;;13.45;98.44
68889;BME280;55930;47.412;8.790;2023-05-27T02:02:43;95002.03;;;13.25;99.50
68889;BME280;55930;47.412;8.790;2023-05-27T02:06:03;95004.09;;;13.36;99.03
68889;BME280;55930;47.412;8.790;2023-05-27T02:09:23;95000.81;;;13.26;99.40
68889;BME280;55930;47.412;8.790;2023-05-27T02:12:46;95000.31;;;13.08;100.00
68889;BME280;55930;47.412;8.790;2023-05-27T02:16:08;95009.03;;;13.08;100.00
68889;BME280;55930;47.412;8.790;2023-05-27T02:19:28;95007.41;;;12.96;100.00
68889;BME280;55930;47.412;8.790;2023-05-27T02:22:52;95001.91;;;12.99;100.00
68889;BME280;55930;47.412;8.790;2023-05-27T02:26:12;94997.69;;;12.93;100.00
68889;BME280;55930;47.412;8.790;2023-05-27T02:29:33;94992.19;;;12.82;100.00
68889;BME280;55930;47.412;8.790;2023-05-27T02:32:53;94992.16;;;12.96;100.00
68889;BME280;55930;47.412;8.790;2023-05-27T02:36:14;94991.78;;;12.69;100.00
68889;BME280;55930;47.412;8.790;2023-05-27T02:39:37;94996.44;;;12.59;100.00
68889;BME280;55930;47.412;8.790;2023-05-27T02:42:58;94996.53;;;12.64;100.00
68889;BME280;55930;47.412;8.790;2023-05-27T02:46:18;94993.31;;;12.46;100.00
68889;BME280;55930;47.412;8.790;2023-05-27T02:49:39;94995.44;;;12.56;100.00
68889;BME280;55930;47.412;8.790;2023-05-27T02:52:59;94993.78;;;12.59;100.00
68889;BME280;55930;47.412;8.790;2023-05-27T02:56:20;94990.56;;;12.55;100.00
68889;BME280;55930;47.412;8.790;2023-05-27T02:59:41;94984.63;;;12.60;100.00
68889;BME280;55930;47.412;8.790;2023-05-27T03:03:01;94992.97;;;12.53;100.00
68889;BME280;55930;47.412;8.790;2023-05-27T03:06:25;94984.50;;;12.54;100.00
68889;BME280;55930;47.412;8.790;2023-05-27T03:09:46;94988.00;;;12.46;100.00
68889;BME280;55930;47.412;8.790;2023-05-27T03:13:06;94993.53;;;12.42;100.00
68889;BME280;55930;47.412;8.790;2023-05-27T03:16:26;94992.69;;;12.36;100.00
68889;BME280;55930;47.412;8.790;2023-05-27T03:19:47;94993.69;;;12.39;100.00
68889;BME280;55930;47.412;8.790;2023-05-27T03:23:08;94995.44;;;12.42;100.00
68889;BME280;55930;47.412;8.790;2023-05-27T03:26:28;94992.06;;;12.41;100.00
68889;BME280;55930;47.412;8.790;2023-05-27T03:29:49;94995.91;;;12.40;100.00
68889;BME280;55930;47.412;8.790;2023-05-27T03:33:09;94989.31;;;12.36;100.00
68889;BME280;55930;47.412;8.790;2023-05-27T03:36:30;94988.00;;;12.31;100.00
68889;BME280;55930;47.412;8.790;2023-05-27T03:39:50;94982.59;;;12.25;100.00
68889;BME280;55930;47.412;8.790;2023-05-27T03:43:11;94988.19;;;12.27;100.00
68889;BME280;55930;47.412;8.790;2023-05-27T03:46:32;94986.44;;;12.24;100.00
68889;BME280;55930;47.412;8.790;2023-05-27T03:49:52;94986.91;;;12.23;100.00
68889;BME280;55930;47.412;8.790;2023-05-27T03:53:13;94989.31;;;12.21;100.00
68889;BME280;55930;47.412;8.790;2023-05-27T03:56:33;94999.38;;;12.17;100.00
68889;BME280;55930;47.412;8.790;2023-05-27T03:59:53;94996.72;;;12.32;100.00
68889;BME280;55930;47.412;8.790;2023-05-27T04:03:14;94995.00;;;12.29;100.00
68889;BME280;55930;47.412;8.790;2023-05-27T04:06:34;94995.44;;;12.27;100.00
68889;BME280;55930;47.412;8.790;2023-05-27T04:09:55;94995.63;;;12.38;100.00
68889;BME280;55930;47.412;8.790;2023-05-27T04:13:15;94997.91;;;12.45;100.00
68889;BME280;55930;47.412;8.790;2023-05-27T04:16:35;94991.31;;;12.41;100.00
68889;BME280;55930;47.412;8.790;2023-05-27T04:19:56;94992.59;;;12.45;100.00
68889;BME280;55930;47.412;8.790;2023-05-27T04:23:17;94988.72;;;12.46;100.00
68889;BME280;55930;47.412;8.790;2023-05-27T04:26:37;94991.75;;;12.54;100.00
68889;BME280;55930;47.412;8.790;2023-05-27T04:29:58;94994.06;;;12.61;100.00
68889;BME280;55930;47.412;8.790;2023-05-27T04:33:21;94991.75;;;12.54;100.00
68889;BME280;55930;47.412;8.790;2023-05-27T04:36:42;94988.16;;;12.72;100.00
68889;BME280;55930;47.412;8.790;2023-05-27T04:40:04;94984.13;;;12.76;100.00
68889;BME280;55930;47.412;8.790;2023-05-27T04:43:26;94981.97;;;12.95;100.00
68889;BME280;55930;47.412;8.790;2023-05-27T04:46:47;94977.38;;;12.95;100.00
68889;BME280;55930;47.412;8.790;2023-05-27T04:50:10;94988.25;;;12.92;100.00
68889;BME280;55930;47.412;8.790;2023-05-27T04:53:31;94989.31;;;13.00;100.00
68889;BME280;55930;47.412;8.790;2023-05-27T04:56:52;94983.59;;;13.07;100.00
68889;BME280;55930;47.412;8.790;2023-05-27T05:00:17;94983.47;;;13.31;99.53
68889;BME280;55930;47.412;8.790;2023-05-27T05:03:46;94977.00;;;13.37;98.91
68889;BME280;55930;47.412;8.790;2023-05-27T05:07:22;94984.78;;;13.61;97.33
68889;BME280;55930;47.412;8.790;2023-05-27T05:10:43;94985.00;;;13.58;98.27
68889;BME280;55930;47.412;8.790;2023-05-27T05:14:03;94994.59;;;13.70;97.42
68889;BME280;55930;47.412;8.790;2023-05-27T05:17:24;94987.34;;;13.70;96.93
68889;BME280;55930;47.412;8.790;2023-05-27T05:20:44;94981.63;;;14.03;95.80
68889;BME280;55930;47.412;8.790;2023-05-27T05:24:05;94987.94;;;14.06;95.15
68889;BME280;55930;47.412;8.790;2023-05-27T05:27:27;94993.06;;;14.09;96.20
68889;BME280;55930;47.412;8.790;2023-05-27T05:30:48;94991.88;;;14.36;93.82
68889;BME280;55930;47.412;8.790;2023-05-27T05:34:08;94991.22;;;14.41;93.92
68889;BME280;55930;47.412;8.790;2023-05-27T05:37:28;94985.75;;;14.30;93.62
68889;BME280;55930;47.412;8.790;2023-05-27T05:40:49;94995.09;;;14.72;92.53
68889;BME280;55930;47.412;8.790;2023-05-27T05:44:12;94992.72;;;14.79;92.24
68889;BME280;55930;47.412;8.790;2023-05-27T05:47:32;94988.72;;;15.01;90.70
68889;BME280;55930;47.412;8.790;2023-05-27T05:50:53;94987.97;;;14.94;90.99
68889;BME280;55930;47.412;8.790;2023-05-27T05:54:16;94988.06;;;15.06;90.41
68889;BME280;55930;47.412;8.790;2023-05-27T05:57:36;94984.81;;;14.96;90.94
68889;BME280;55930;47.412;8.790;2023-05-27T06:00:57;94990.25;;;15.07;89.88
68889;BME280;55930;47.412;8.790;2023-05-27T06:04:17;94980.69;;;15.32;89.40
68889;BME280;55930;47.412;8.790;2023-05-27T06:07:38;94988.75;;;15.49;88.78
68889;BME280;55930;47.412;8.790;2023-05-27T06:10:58;94988.72;;;15.43;87.27
68889;BME280;55930;47.412;8.790;2023-05-27T06:14:18;94986.06;;;15.43;88.57
68889;BME280;55930;47.412;8.790;2023-05-27T06:17:39;94983.22;;;15.58;87.47
68889;BME280;55930;47.412;8.790;2023-05-27T06:21:00;94987.75;;;15.94;86.31
68889;BME280;55930;47.412;8.790;2023-05-27T06:24:20;94978.16;;;15.65;86.99
68889;BME280;55930;47.412;8.790;2023-05-27T06:27:41;94989.47;;;16.14;84.05
68889;BME280;55930;47.412;8.790;2023-05-27T06:31:01;94989.31;;;16.73;82.95
68889;BME280;55930;47.412;8.790;2023-05-27T06:34:22;94986.59;;;17.18;81.26
68889;BME280;55930;47.412;8.790;2023-05-27T06:37:42;94987.81;;;17.17;78.96
68889;BME280;55930;47.412;8.790;2023-05-27T06:41:03;94985.31;;;17.47;79.75
68889;BME280;55930;47.412;8.790;2023-05-27T06:44:24;94986.22;;;17.72;76.67
68889;BME280;55930;47.412;8.790;2023-05-27T06:47:45;94985.63;;;17.15;78.86
68889;BME280;55930;47.412;8.790;2023-05-27T06:51:06;94982.56;;;17.58;78.31
68889;BME280;55930;47.412;8.790;2023-05-27T06:54:26;94976.97;;;17.56;79.26
68889;BME280;55930;47.412;8.790;2023-05-27T06:57:47;94979.00;;;18.02;76.04
68889;BME280;55930;47.412;8.790;2023-05-27T07:01:07;94979.41;;;18.17;78.30
68889;BME280;55930;47.412;8.790;2023-05-27T07:04:27;94972.41;;;17.97;76.62
68889;BME280;55930;47.412;8.790;2023-05-27T07:07:48;94987.03;;;18.43;72.80
68889;BME280;55930;47.412;8.790;2023-05-27T07:11:08;94976.59;;;18.69;72.79
68889;BME280;55930;47.412;8.790;2023-05-27T07:14:29;94984.09;;;18.82;72.89
68889;BME280;55930;47.412;8.790;2023-05-27T07:17:49;94988.75;;;19.06;71.94
68889;BME280;55930;47.412;8.790;2023-05-27T07:21:10;94985.19;;;19.22;70.52
68889;BME280;55930;47.412;8.790;2023-05-27T07:24:32;94983.50;;;19.19;72.39
68889;BME280;55930;47.412;8.790;2023-05-27T07:27:52;94978.75;;;19.74;69.33
68889;BME280;55930;47.412;8.790;2023-05-27T07:31:13;94976.06;;;20.30;64.48
68889;BME280;55930;47.412;8.790;2023-05-27T07:34:33;94972.94;;;19.45;69.30
68889;BME280;55930;47.412;8.790;2023-05-27T07:37:53;94969.53;;;19.69;67.71
68889;BME280;55930;47.412;8.790;2023-05-27T07:41:16;94979.44;;;18.47;69.81
68889;BME280;55930;47.412;8.790;2023-05-27T07:44:36;94972.78;;;18.59;69.54
68889;BME280;55930;47.412;8.790;2023-05-27T07:47:57;94968.47;;;19.54;67.25
68889;BME280;55930;47.412;8.790;2023-05-27T07:51:17;94958.69;;;19.75;69.03
68889;BME280;55930;47.412;8.790;2023-05-27T07:54:37;94959.91;;;20.62;65.84
68889;BME280;55930;47.412;8.790;2023-05-27T07:57:58;94959.19;;;21.33;64.23
68889;BME280;55930;47.412;8.790;2023-05-27T08:01:18;94961.00;;;19.65;66.93
68889;BME280;55930;47.412;8.790;2023-05-27T08:04:38;94970.19;;;21.74;62.23
68889;BME280;55930;47.412;8.790;2023-05-27T08:07:59;94949.09;;;21.86;61.10
68889;BME280;55930;47.412;8.790;2023-05-27T08:11:19;94951.03;;;21.99;60.27
68889;BME280;55930;47.412;8.790;2023-05-27T08:14:40;94947.88;;;21.48;63.75
68889;BME280;55930;47.412;8.790;2023-05-27T08:18:01;94947.88;;;22.63;64.80
68889;BME280;55930;47.412;8.790;2023-05-27T08:21:23;94946.41;;;22.20;59.79
68889;BME280;55930;47.412;8.790;2023-05-27T08:24:44;94947.03;;;22.47;58.71
68889;BME280;55930;47.412;8.790;2023-05-27T08:28:04;94938.84;;;23.30;59.21
68889;BME280;55930;47.412;8.790;2023-05-27T08:31:24;94937.91;;;22.16;60.70
68889;BME280;55930;47.412;8.790;2023-05-27T08:35:05;94944.78;;;21.44;65.39
68889;BME280;55930;47.412;8.790;2023-05-27T08:38:26;94936.78;;;21.25;64.62
68889;BME280;55930;47.412;8.790;2023-05-27T08:41:46;94936.34;;;20.94;66.78
68889;BME280;55930;47.412;8.790;2023-05-27T08:45:08;94932.56;;;20.71;64.92
68889;BME280;55930;47.412;8.790;2023-05-27T08:48:29;94930.25;;;20.62;68.26
68889;BME280;55930;47.412;8.790;2023-05-27T08:51:51;94921.59;;;20.82;65.51
68889;BME280;55930;47.412;8.790;2023-05-27T08:55:15;94921.31;;;20.99;66.41
68889;BME280;55930;47.412;8.790;2023-05-27T08:58:36;94926.09;;;21.19;66.91
68889;BME280;55930;47.412;8.790;2023-05-27T09:01:57;94925.72;;;20.83;69.16
68889;BME280;55930;47.412;8.790;2023-05-27T09:05:17;94916.94;;;20.96;68.65
68889;BME280;55930;47.412;8.790;2023-05-27T09:08:38;94913.38;;;21.67;66.84
68889;BME280;55930;47.412;8.790;2023-05-27T09:12:01;94925.47;;;21.39;66.67
68889;BME280;55930;47.412;8.790;2023-05-27T09:15:23;94928.06;;;21.45;64.99
68889;BME280;55930;47.412;8.790;2023-05-27T09:18:43;94913.91;;;21.65;67.89
68889;BME280;55930;47.412;8.790;2023-05-27T09:22:04;94916.22;;;21.35;64.02
68889;BME280;55930;47.412;8.790;2023-05-27T09:25:26;94915.56;;;21.55;64.99
68889;BME280;55930;47.412;8.790;2023-05-27T09:28:47;94915.47;;;21.61;65.51
68889;BME280;55930;47.412;8.790;2023-05-27T09:32:10;94903.69;;;21.71;64.51
68889;BME280;55930;47.412;8.790;2023-05-27T09:35:37;94905.63;;;21.11;64.12
68889;BME280;55930;47.412;8.790;2023-05-27T09:38:58;94909.34;;;21.08;62.56
68889;BME280;55930;47.412;8.790;2023-05-27T09:42:18;94908.03;;;21.88;60.39
68889;BME280;55930;47.412;8.790;2023-05-27T09:45:40;94905.72;;;21.58;63.91
68889;BME280;55930;47.412;8.790;2023-05-27T09:49:02;94903.81;;;20.60;64.18
68889;BME280;55930;47.412;8.790;2023-05-27T09:52:25;94901.06;;;21.92;62.86
68889;BME280;55930;47.412;8.790;2023-05-27T09:55:46;94899.09;;;21.32;61.85
68889;BME280;55930;47.412;8.790;2023-05-27T09:59:06;94913.00;;;22.31;61.28
68889;BME280;55930;47.412;8.790;2023-05-27T10:02:29;94901.69;;;21.98;59.65
68889;BME280;55930;47.412;8.790;2023-05-27T10:05:51;94896.63;;;21.82;59.04
68889;BME280;55930;47.412;8.790;2023-05-27T10:09:15;94908.66;;;21.81;59.55
68889;BME280;55930;47.412;8.790;2023-05-27T10:12:36;94891.78;;;22.35;61.64
68889;BME280;55930;47.412;8.790;2023-05-27T10:15:57;94894.78;;;22.31;59.62
68889;BME280;55930;47.412;8.790;2023-05-27T10:19:18;94882.59;;;22.17;58.68
68889;BME280;55930;47.412;8.790;2023-05-27T10:22:43;94888.50;;;22.78;57.29
68889;BME280;55930;47.412;8.790;2023-05-27T10:26:07;94892.47;;;22.56;58.65
68889;BME280;55930;47.412;8.790;2023-05-27T10:29:35;94887.63;;;22.34;56.79
68889;BME280;55930;47.412;8.790;2023-05-27T10:32:58;94902.03;;;22.78;58.96
68889;BME280;55930;47.412;8.790;2023-05-27T10:36:24;94884.09;;;22.05;56.76
68889;BME280;55930;47.412;8.790;2023-05-27T10:39:53;94887.59;;;23.40;54.32
68889;BME280;55930;47.412;8.790;2023-05-27T10:43:15;94899.78;;;22.69;55.09
68889;BME280;55930;47.412;8.790;2023-05-27T10:46:40;94892.19;;;23.16;56.11
68889;BME280;55930;47.412;8.790;2023-05-27T10:50:11;94885.22;;;22.51;56.07
68889;BME280;55930;47.412;8.790;2023-05-27T10:53:37;94889.56;;;23.68;57.49
68889;BME280;55930;47.412;8.790;2023-05-27T10:56:58;94895.31;;;24.46;53.59
68889;BME280;55930;47.412;8.790;2023-05-27T11:00:20;94883.38;;;23.59;56.05
68889;BME280;55930;47.412;8.790;2023-05-27T11:03:44;94879.66;;;23.42;55.20
68889;BME280;55930;47.412;8.790;2023-05-27T11:07:05;94878.44;;;23.94;52.94
68889;BME280;55930;47.412;8.790;2023-05-27T11:10:25;94874.88;;;24.22;54.55
68889;BME280;55930;47.412;8.790;2023-05-27T11:13:47;94870.59;;;23.32;54.48
68889;BME280;55930;47.412;8.790;2023-05-27T11:17:11;94872.56;;;24.33;54.59
68889;BME280;55930;47.412;8.790;2023-05-27T11:20:36;94862.78;;;24.30;52.97
68889;BME280;55930;47.412;8.790;2023-05-27T11:23:57;94857.00;;;24.34;55.53
68889;BME280;55930;47.412;8.790;2023-05-27T11:27:17;94848.97;;;23.90;52.12
68889;BME280;55930;47.412;8.790;2023-05-27T11:30:37;94839.63;;;24.52;53.50
68889;BME280;55930;47.412;8.790;2023-05-27T11:33:58;94835.53;;;23.54;52.22
68889;BME280;55930;47.412;8.790;2023-05-27T11:37:18;94836.00;;;24.27;53.97
68889;BME280;55930;47.412;8.790;2023-05-27T11:40:39;94833.97;;;24.88;52.62
68889;BME280;55930;47.412;8.790;2023-05-27T11:47:21;94828.53;;;24.88;51.56
68889;BME280;55930;47.412;8.790;2023-05-27T11:50:44;94825.63;;;25.09;49.53
68889;BME280;55930;47.412;8.790;2023-05-27T11:54:04;94833.72;;;25.16;53.58
68889;BME280;55930;47.412;8.790;2023-05-27T11:57:25;94820.28;;;24.48;50.02
68889;BME280;55930;47.412;8.790;2023-05-27T12:00:45;94817.94;;;24.37;51.24
68889;BME280;55930;47.412;8.790;2023-05-27T12:04:06;94806.16;;;24.19;48.82
68889;BME280;55930;47.412;8.790;2023-05-27T12:07:26;94804.91;;;24.28;47.94
68889;BME280;55930;47.412;8.790;2023-05-27T12:10:48;94803.59;;;24.74;49.02
68889;BME280;55930;47.412;8.790;2023-05-27T12:14:10;94807.06;;;24.07;47.57
68889;BME280;55930;47.412;8.790;2023-05-27T12:17:31;94795.91;;;24.25;47.72
68889;BME280;55930;47.412;8.790;2023-05-27T12:20:51;94793.50;;;24.52;48.13
68889;BME280;55930;47.412;8.790;2023-05-27T12:24:13;94792.72;;;25.45;46.00
68889;BME280;55930;47.412;8.790;2023-05-27T12:27:33;94795.56;;;25.07;47.46
68889;BME280;55930;47.412;8.790;2023-05-27T12:30:55;94787.00;;;25.58;48.39
68889;BME280;55930;47.412;8.790;2023-05-27T12:34:17;94789.34;;;25.29;47.93
68889;BME280;55930;47.412;8.790;2023-05-27T12:37:38;94775.31;;;25.40;48.35
68889;BME280;55930;47.412;8.790;2023-05-27T12:40:58;94777.75;;;25.94;47.58
68889;BME280;55930;47.412;8.790;2023-05-27T12:44:21;94769.28;;;25.17;46.29
68889;BME280;55930;47.412;8.790;2023-05-27T12:47:44;94768.16;;;25.68;47.12
68889;BME280;55930;47.412;8.790;2023-05-27T12:51:05;94764.84;;;25.37;45.36
68889;BME280;55930;47.412;8.790;2023-05-27T12:54:26;94762.00;;;25.92;45.04
68889;BME280;55930;47.412;8.790;2023-05-27T12:57:48;94763.44;;;25.28;44.44
68889;BME280;55930;47.412;8.790;2023-05-27T13:01:10;94764.53;;;26.15;46.24
68889;BME280;55930;47.412;8.790;2023-05-27T13:04:31;94750.94;;;25.90;45.57
68889;BME280;55930;47.412;8.790;2023-05-27T13:07:59;94756.78;;;25.62;46.07
68889;BME280;55930;47.412;8.790;2023-05-27T13:11:19;94751.38;;;25.79;43.94
68889;BME280;55930;47.412;8.790;2023-05-27T13:14:41;94755.22;;;25.76;46.62
68889;BME280;55930;47.412;8.790;2023-05-27T13:18:05;94750.13;;;25.80;46.56
68889;BME280;55930;47.412;8.790;2023-05-27T13:21:27;94756.75;;;25.29;43.95
68889;BME280;55930;47.412;8.790;2023-05-27T13:24:48;94754.06;;;25.62;44.73
68889;BME280;55930;47.412;8.790;2023-05-27T13:28:08;94750.94;;;25.90;44.76
68889;BME280;55930;47.412;8.790;2023-05-27T13:31:29;94750.38;;;26.16;45.44
68889;BME280;55930;47.412;8.790;2023-05-27T13:34:49;94749.28;;;25.95;42.38
68889;BME280;55930;47.412;8.790;2023-05-27T13:38:11;94739.03;;;25.61;44.24
68889;BME280;55930;47.412;8.790;2023-05-27T13:41:33;94736.34;;;26.27;44.44
68889;BME280;55930;47.412;8.790;2023-05-27T13:44:54;94738.25;;;25.68;43.93
68889;BME280;55930;47.412;8.790;2023-05-27T13:48:14;94736.53;;;26.47;44.61
68889;BME280;55930;47.412;8.790;2023-05-27T13:51:42;94734.84;;;24.79;41.79
68889;BME280;55930;47.412;8.790;2023-05-27T13:55:04;94738.53;;;25.79;43.92
68889;BME280;55930;47.412;8.790;2023-05-27T13:58:24;94745.88;;;25.94;45.24
68889;BME280;55930;47.412;8.790;2023-05-27T14:01:45;94725.72;;;25.72;42.37
68889;BME280;55930;47.412;8.790;2023-05-27T14:05:05;94741.53;;;25.91;41.31
68889;BME280;55930;47.412;8.790;2023-05-27T14:08:26;94729.69;;;25.71;42.56
68889;BME280;55930;47.412;8.790;2023-05-27T14:11:47;94734.88;;;25.84;41.88
68889;BME280;55930;47.412;8.790;2023-05-27T14:15:11;94728.63;;;24.39;42.93
68889;BME280;55930;47.412;8.790;2023-05-27T14:18:31;94720.34;;;25.57;42.70
68889;BME280;55930;47.412;8.790;2023-05-27T14:21:52;94721.84;;;24.70;42.06
68889;BME280;55930;47.412;8.790;2023-05-27T14:25:13;94710.78;;;25.24;44.15
68889;BME280;55930;47.412;8.790;2023-05-27T14:28:33;94719.00;;;24.53;42.90
68889;BME280;55930;47.412;8.790;2023-05-27T14:31:56;94704.19;;;25.02;44.70
68889;BME280;55930;47.412;8.790;2023-05-27T14:35:16;94712.84;;;25.40;42.40
68889;BME280;55930;47.412;8.790;2023-05-27T14:38:37;94707.81;;;25.04;42.50
68889;BME280;55930;47.412;8.790;2023-05-27T14:41:57;94709.53;;;25.17;43.72
68889;BME280;55930;47.412;8.790;2023-05-27T14:45:18;94698.94;;;25.04;43.76
68889;BME280;55930;47.412;8.790;2023-05-27T14:48:40;94691.84;;;25.41;41.60
68889;BME280;55930;47.412;8.790;2023-05-27T14:52:01;94693.69;;;25.63;41.64
68889;BME280;55930;47.412;8.790;2023-05-27T14:55:21;94689.47;;;25.45;42.39
68889;BME280;55930;47.412;8.790;2023-05-27T14:58:42;94683.69;;;25.41;42.84
68889;BME280;55930;47.412;8.790;2023-05-27T15:02:02;94691.97;;;25.50;42.13
68889;BME280;55930;47.412;8.790;2023-05-27T15:05:23;94687.47;;;25.45;42.16
68889;BME280;55930;47.412;8.790;2023-05-27T15:08:43;94683.66;;;24.76;45.33
68889;BME280;55930;47.412;8.790;2023-05-27T15:12:04;94682.84;;;25.31;43.06
68889;BME280;55930;47.412;8.790;2023-05-27T15:15:27;94690.03;;;24.63;43.50
68889;BME280;55930;47.412;8.790;2023-05-27T15:18:48;94687.88;;;25.09;43.27
68889;BME280;55930;47.412;8.790;2023-05-27T15:22:08;94680.78;;;25.14;43.25
68889;BME280;55930;47.412;8.790;2023-05-27T15:25:28;94678.81;;;25.07;41.76
68889;BME280;55930;47.412;8.790;2023-05-27T15:28:49;94679.44;;;24.98;42.59
68889;BME280;55930;47.412;8.790;2023-05-27T15:32:09;94680.34;;;24.93;43.47
68889;BME280;55930;47.412;8.790;2023-05-27T15:35:29;94672.88;;;24.53;44.96
68889;BME280;55930;47.412;8.790;2023-05-27T15:38:50;94677.75;;;24.55;44.52
68889;BME280;55930;47.412;8.790;2023-05-27T15:42:11;94664.28;;;24.32;41.91
68889;BME280;55930;47.412;8.790;2023-05-27T15:45:31;94667.69;;;24.88;43.08
68889;BME280;55930;47.412;8.790;2023-05-27T15:48:52;94669.03;;;25.11;43.64
68889;BME280;55930;47.412;8.790;2023-05-27T15:52:12;94670.44;;;24.17;44.96
68889;BME280;55930;47.412;8.790;2023-05-27T15:55:33;94673.31;;;24.82;43.72
68889;BME280;55930;47.412;8.790;2023-05-27T15:58:54;94667.59;;;24.63;43.48
68889;BME280;55930;47.412;8.790;2023-05-27T16:02:14;94678.56;;;24.32;44.63
68889;BME280;55930;47.412;8.790;2023-05-27T16:05:35;94673.88;;;23.95;44.08
68889;BME280;55930;47.412;8.790;2023-05-27T16:08:55;94668.28;;;24.23;43.75
68889;BME280;55930;47.412;8.790;2023-05-27T16:12:16;94666.69;;;23.82;45.03
68889;BME280;55930;47.412;8.790;2023-05-27T16:15:36;94667.41;;;23.68;44.77
68889;BME280;55930;47.412;8.790;2023-05-27T16:18:56;94665.59;;;23.85;45.35
68889;BME280;55930;47.412;8.790;2023-05-27T16:22:17;94663.41;;;23.31;44.26
68889;BME280;55930;47.412;8.790;2023-05-27T16:25:37;94659.22;;;23.22;46.49
68889;BME280;55930;47.412;8.790;2023-05-27T16:28:58;94664.66;;;23.30;45.90
68889;BME280;55930;47.412;8.790;2023-05-27T16:32:21;94670.41;;;23.34;44.76
68889;BME280;55930;47.412;8.790;2023-05-27T16:35:41;94660.25;;;22.96;45.39
68889;BME280;55930;47.412;8.790;2023-05-27T16:39:02;94656.66;;;23.01;46.42
68889;BME280;55930;47.412;8.790;2023-05-27T16:42:23;94660.09;;;23.09;44.77
68889;BME280;55930;47.412;8.790;2023-05-27T16:45:43;94663.00;;;23.11;45.69
68889;BME280;55930;47.412;8.790;2023-05-27T16:49:03;94657.06;;;22.69;45.82
68889;BME280;55930;47.412;8.790;2023-05-27T16:52:24;94657.44;;;22.66;47.03
68889;BME280;55930;47.412;8.790;2023-05-27T16:55:45;94656.50;;;22.63;47.44
68889;BME280;55930;47.412;8.790;2023-05-27T16:59:07;94659.28;;;22.35;47.31
68889;BME280;55930;47.412;8.790;2023-05-27T17:02:27;94672.00;;;22.63;47.62
68889;BME280;55930;47.412;8.790;2023-05-27T17:05:48;94649.34;;;22.30;47.16
68889;BME280;55930;47.412;8.790;2023-05-27T17:09:08;94664.56;;;22.48;46.13
68889;BME280;55930;47.412;8.790;2023-05-27T17:12:29;94664.28;;;22.67;46.08
68889;BME280;55930;47.412;8.790;2023-05-27T17:15:49;94668.06;;;22.64;47.28
68889;BME280;55930;47.412;8.790;2023-05-27T17:19:10;94668.19;;;22.50;46.74
68889;BME280;55930;47.412;8.790;2023-05-27T17:22:30;94659.41;;;22.29;47.23
68889;BME280;55930;47.412;8.790;2023-05-27T17:25:51;94675.25;;;21.97;47.34
68889;BME280;55930;47.412;8.790;2023-05-27T17:29:12;94669.47;;;21.93;48.12
68889;BME280;55930;47.412;8.790;2023-05-27T17:32:32;94660.41;;;21.62;48.24
68889;BME280;55930;47.412;8.790;2023-05-27T17:35:53;94669.03;;;21.60;49.58
68889;BME280;55930;47.412;8.790;2023-05-27T17:39:13;94670.44;;;21.54;49.63
68889;BME280;55930;47.412;8.790;2023-05-27T17:42:34;94668.91;;;21.45;48.83
68889;BME280;55930;47.412;8.790;2023-05-27T17:45:55;94665.69;;;21.26;49.10